Time;durP1;ratioP1;P1;durP2;ratioP2;P2;SDS_P1;SDS_P2;PMS_P1;PMS_P2;Temp;Humidity;BMP_temperature;BMP_pressure;BME280_temperature;BME280_humidity;BME280_pressure;Samples;Min_cycle;Max_cycle;Signal;HPM_P1;HPM_P2
2022/12/27 00:02:12;;;;;;;0.00;0.00;;;12.00;99.90;;;;;;5027399;28;20046;-74
2022/12/27 00:04:38;;;;;;;0.00;0.00;;;12.00;99.90;;;;;;5032064;28;20033;-74
2022/12/27 00:07:04;;;;;;;0.00;0.00;;;12.00;99.90;;;;;;5029887;28;20025;-72
2022/12/27 00:09:30;;;;;;;0.00;0.00;;;12.00;99.90;;;;;;5030707;28;20034;-73
2022/12/27 00:11:56;;;;;;;0.00;0.00;;;12.00;99.90;;;;;;5039760;28;20033;-72
2022/12/27 00:14:21;;;;;;;0.00;0.00;;;11.90;99.90;;;;;;5035016;28;20129;-72
2022/12/27 00:16:47;;;;;;;0.00;0.00;;;11.90;99.90;;;;;;5034364;28;20087;-72
2022/12/27 00:19:14;;;;;;;0.00;0.00;;;11.80;99.90;;;;;;5030303;28;20079;-73
2022/12/27 00:21:40;;;;;;;0.00;0.00;;;11.80;99.90;;;;;;5048982;28;20509;-72
2022/12/27 00:24:06;;;;;;;0.00;0.00;;;11.70;99.90;;;;;;5033168;28;20033;-73
2022/12/27 00:26:34;;;;;;;0.00;0.00;;;11.70;99.90;;;;;;5029635;28;20030;-72
2022/12/27 00:29:00;;;;;;;0.00;0.00;;;11.70;99.90;;;;;;5032552;28;20032;-73
2022/12/27 00:31:27;;;;;;;0.00;0.00;;;11.60;99.90;;;;;;5031125;28;20555;-72
2022/12/27 00:33:55;;;;;;;0.00;0.00;;;11.60;99.90;;;;;;5029847;28;20052;-72
2022/12/27 00:36:23;;;;;;;0.00;0.00;;;11.50;99.90;;;;;;5030746;28;20450;-72
2022/12/27 00:38:49;;;;;;;0.00;0.00;;;11.50;99.90;;;;;;5030552;28;20034;-73
2022/12/27 00:41:15;;;;;;;0.00;0.00;;;11.40;99.90;;;;;;5029367;28;20116;-72
2022/12/27 00:43:41;;;;;;;0.00;0.00;;;11.40;99.90;;;;;;5037028;28;20514;-72
2022/12/27 00:46:09;;;;;;;0.00;0.00;;;11.30;99.90;;;;;;5031564;28;20032;-72
2022/12/27 00:48:35;;;;;;;0.00;0.00;;;11.30;99.90;;;;;;5028528;28;20096;-73
2022/12/27 00:51:14;;;;;;;0.00;0.00;;;11.20;99.90;;;;;;5029610;28;20030;-73
2022/12/27 00:53:40;;;;;;;0.00;0.00;;;11.10;99.90;;;;;;5033610;28;20053;-72
2022/12/27 00:56:08;;;;;;;0.00;0.00;;;11.00;99.90;;;;;;5029229;28;20048;-72
2022/12/27 00:58:34;;;;;;;0.00;0.00;;;11.00;99.90;;;;;;5030648;28;20087;-72
2022/12/27 01:01:12;;;;;;;0.00;0.00;;;11.00;99.90;;;;;;5029829;28;20029;-72
2022/12/27 01:03:44;;;;;;;0.00;0.00;;;10.90;99.90;;;;;;5029998;28;20092;-72
2022/12/27 01:06:13;;;;;;;0.00;0.00;;;10.90;99.90;;;;;;5031816;28;20033;-73
2022/12/27 01:08:41;;;;;;;0.00;0.00;;;10.80;99.90;;;;;;5029889;28;20037;-73
2022/12/27 01:11:08;;;;;;;0.00;0.00;;;10.80;99.90;;;;;;5028141;28;20039;-72
2022/12/27 01:13:35;;;;;;;0.00;0.00;;;10.80;99.90;;;;;;5034253;28;20049;-73
2022/12/27 01:16:01;;;;;;;0.00;0.00;;;10.70;99.90;;;;;;5032871;28;20037;-72
2022/12/27 01:18:26;;;;;;;0.00;0.00;;;10.70;99.90;;;;;;5030821;28;20034;-72
2022/12/27 01:20:52;;;;;;;0.00;0.00;;;10.60;99.90;;;;;;5031171;28;20025;-73
2022/12/27 01:23:18;;;;;;;0.00;0.00;;;10.60;99.90;;;;;;5032571;28;20441;-72
2022/12/27 01:25:59;;;;;;;0.00;0.00;;;10.60;99.90;;;;;;5033470;28;20025;-72
2022/12/27 01:28:25;;;;;;;0.00;0.00;;;10.70;99.90;;;;;;5046814;28;20115;-72
2022/12/27 01:30:50;;;;;;;0.00;0.00;;;10.70;99.90;;;;;;5043635;28;20420;-72
2022/12/27 01:33:16;;;;;;;0.00;0.00;;;10.70;99.90;;;;;;5030600;28;20022;-73
2022/12/27 01:35:41;;;;;;;0.00;0.00;;;10.70;99.90;;;;;;5032920;28;20021;-72
2022/12/27 01:38:07;;;;;;;0.00;0.00;;;10.70;99.90;;;;;;5028543;28;20585;-72
2022/12/27 01:40:35;;;;;;;0.00;0.00;;;10.70;99.90;;;;;;5027766;28;20108;-73
2022/12/27 01:43:01;;;;;;;0.00;0.00;;;10.70;99.90;;;;;;5032557;28;20029;-72
2022/12/27 01:45:28;;;;;;;0.00;0.00;;;10.70;99.90;;;;;;5031482;28;20072;-73
2022/12/27 01:48:16;;;;;;;0.00;0.00;;;10.60;99.90;;;;;;5029744;28;20016;-72
2022/12/27 01:50:53;;;;;;;0.00;0.00;;;10.60;99.90;;;;;;5028544;28;20024;-73
2022/12/27 01:53:24;;;;;;;0.00;0.00;;;10.60;99.90;;;;;;5029367;28;20104;-72
2022/12/27 01:56:00;;;;;;;0.00;0.00;;;10.60;99.90;;;;;;5031177;28;20025;-72
2022/12/27 01:58:26;;;;;;;0.00;0.00;;;10.60;99.90;;;;;;5031504;28;20028;-72
2022/12/27 02:00:52;;;;;;;0.00;0.00;;;10.50;99.90;;;;;;5027570;28;20383;-72
2022/12/27 02:03:23;;;;;;;0.00;0.00;;;10.50;99.90;;;;;;5028856;28;20037;-72
2022/12/27 02:05:50;;;;;;;0.00;0.00;;;10.50;99.90;;;;;;5030053;28;20025;-73
2022/12/27 02:08:27;;;;;;;0.00;0.00;;;10.40;99.90;;;;;;5033665;28;20021;-73
2022/12/27 02:10:54;;;;;;;0.00;0.00;;;10.40;99.90;;;;;;5027574;28;20021;-72
2022/12/27 02:13:20;;;;;;;0.00;0.00;;;10.40;99.90;;;;;;5031415;28;20021;-72
2022/12/27 02:15:46;;;;;;;0.00;0.00;;;10.40;99.90;;;;;;5034458;28;20044;-72
2022/12/27 02:18:11;;;;;;;0.00;0.00;;;10.50;99.90;;;;;;5028541;28;20052;-72
2022/12/27 02:20:50;;;;;;;0.00;0.00;;;10.40;99.90;;;;;;5038497;28;20037;-73
2022/12/27 02:24:03;;;;;;;0.00;0.00;;;10.40;99.90;;;;;;5026224;28;20029;-72
2022/12/27 02:26:38;;;;;;;0.00;0.00;;;10.40;99.90;;;;;;5026760;28;20758;-73
2022/12/27 02:29:13;;;;;;;0.00;0.00;;;10.30;99.90;;;;;;5032359;28;20105;-73
2022/12/27 02:32:05;;;;;;;0.00;0.00;;;10.30;99.90;;;;;;5028340;28;20025;-73
2022/12/27 02:34:53;;;;;;;0.00;0.00;;;10.20;99.90;;;;;;5026168;28;20042;-72
2022/12/27 02:37:22;;;;;;;0.00;0.00;;;10.30;99.90;;;;;;5050801;28;20064;-72
2022/12/27 02:39:49;;;;;;;0.00;0.00;;;10.30;99.90;;;;;;5031838;28;20052;-73
2022/12/27 02:54:38;;;;;;;0.00;0.00;;;10.20;99.90;;;;;;5027638;28;20477;-72
2022/12/27 02:57:12;;;;;;;0.00;0.00;;;10.20;99.90;;;;;;5026679;28;20064;-72
2022/12/27 03:03:27;;;;;;;0.00;0.00;;;10.20;99.90;;;;;;5029810;28;20044;-72
2022/12/27 03:06:43;;;;;;;0.00;0.00;;;10.10;99.90;;;;;;5042334;28;20075;-72
2022/12/27 03:15:53;;;;;;;0.00;0.00;;;10.10;99.90;;;;;;5027641;28;20027;-73
2022/12/27 03:18:18;;;;;;;0.00;0.00;;;9.90;99.90;;;;;;5031015;28;20047;-72
2022/12/27 03:26:17;;;;;;;0.00;0.00;;;9.60;99.90;;;;;;5034097;28;20187;-73
2022/12/27 03:34:31;;;;;;;0.00;0.00;;;9.50;99.90;;;;;;5031189;28;20036;-73
2022/12/27 03:40:29;;;;;;;0.00;0.00;;;9.40;99.90;;;;;;5031531;28;20033;-74
2022/12/27 03:43:10;;;;;;;0.00;0.00;;;9.40;99.90;;;;;;5031592;28;20075;-73
2022/12/27 03:49:05;;;;;;;0.00;0.00;;;9.30;99.90;;;;;;5030612;28;20060;-73
2022/12/27 03:51:58;;;;;;;0.00;0.00;;;9.30;99.90;;;;;;5044183;28;20033;-73
2022/12/27 03:54:29;;;;;;;0.00;0.00;;;9.30;99.90;;;;;;5038947;28;20382;-72
2022/12/27 03:56:58;;;;;;;0.00;0.00;;;9.30;99.90;;;;;;5031264;28;20025;-72
2022/12/27 03:59:24;;;;;;;0.00;0.00;;;9.30;99.90;;;;;;5034090;28;20025;-72
2022/12/27 04:01:49;;;;;;;0.00;0.00;;;9.20;99.90;;;;;;5032055;28;20028;-72
2022/12/27 04:04:15;;;;;;;0.00;0.00;;;9.30;99.90;;;;;;5031221;28;20052;-73
2022/12/27 04:06:41;;;;;;;0.00;0.00;;;9.20;99.90;;;;;;5035552;28;20372;-72
2022/12/27 04:36:37;;;;;;;0.00;0.00;;;8.70;99.90;;;;;;5032561;28;20040;-72
2022/12/27 04:39:03;;;;;;;0.00;0.00;;;8.70;99.90;;;;;;5030403;28;20040;-72
2022/12/27 04:55:21;;;;;;;0.00;0.00;;;8.70;99.90;;;;;;5032015;28;20140;-73
2022/12/27 04:57:47;;;;;;;0.00;0.00;;;8.60;99.90;;;;;;5028151;28;20022;-72
2022/12/27 05:03:22;;;;;;;0.00;0.00;;;8.50;99.90;;;;;;4988880;28;21077;-72
2022/12/27 05:05:50;;;;;;;0.00;0.00;;;8.60;99.90;;;;;;5023826;28;20055;-72
2022/12/27 05:14:00;;;;;;;;;;;8.60;99.90;;;;;;5035301;28;20163;-72
2022/12/27 05:16:37;;;;;;;0.00;0.00;;;8.60;99.90;;;;;;5034095;28;19924;-72
2022/12/27 05:19:07;;;;;;;0.00;0.00;;;8.60;99.90;;;;;;5030836;28;20037;-72
2022/12/27 05:21:38;;;;;;;0.00;0.00;;;8.60;99.90;;;;;;5028616;28;20037;-72
2022/12/27 05:26:48;;;;;;;0.00;0.00;;;8.50;99.90;;;;;;5031283;28;20028;-73
2022/12/27 05:29:14;;;;;;;0.00;0.00;;;8.60;99.90;;;;;;5047448;28;20024;-72
2022/12/27 05:31:39;;;;;;;0.00;0.00;;;8.60;99.90;;;;;;5034297;28;20025;-72
2022/12/27 05:34:05;;;;;;;0.00;0.00;;;8.60;99.90;;;;;;5029041;28;20025;-72
2022/12/27 05:36:31;;;;;;;0.00;0.00;;;8.60;99.90;;;;;;5031715;28;20036;-72
2022/12/27 05:38:58;;;;;;;0.00;0.00;;;8.60;99.90;;;;;;5031798;28;20119;-72
2022/12/27 05:41:24;;;;;;;0.00;0.00;;;8.60;99.90;;;;;;5028073;28;20029;-72
2022/12/27 05:43:51;;;;;;;0.00;0.00;;;8.60;99.90;;;;;;5032844;28;20721;-72
2022/12/27 05:46:21;;;;;;;0.00;0.00;;;8.60;99.90;;;;;;5030382;28;20091;-73
2022/12/27 05:48:50;;;;;;;0.00;0.00;;;8.60;99.90;;;;;;5032214;28;20022;-72
2022/12/27 05:51:18;;;;;;;0.00;0.00;;;8.60;99.90;;;;;;5032911;28;20060;-72
2022/12/27 05:53:45;;;;;;;0.00;0.00;;;8.60;99.90;;;;;;5031799;28;20017;-72
2022/12/27 05:56:14;;;;;;;0.00;0.00;;;8.60;99.90;;;;;;5030833;28;20428;-72
2022/12/27 05:58:41;;;;;;;0.00;0.00;;;8.60;99.90;;;;;;5036340;28;20052;-72
2022/12/27 06:01:11;;;;;;;0.00;0.00;;;8.60;99.90;;;;;;5030063;28;20474;-72
2022/12/27 06:03:37;;;;;;;0.00;0.00;;;8.60;99.90;;;;;;5030520;28;20025;-72
2022/12/27 06:06:05;;;;;;;0.00;0.00;;;8.70;99.90;;;;;;5029077;28;20017;-72
2022/12/27 06:08:32;;;;;;;0.00;0.00;;;8.70;99.90;;;;;;5030845;28;20026;-72
2022/12/27 06:11:09;;;;;;;0.00;0.00;;;8.70;99.90;;;;;;5029382;28;20018;-73
2022/12/27 06:13:35;;;;;;;;;;;8.70;99.90;;;;;;5033221;28;20029;-72
2022/12/27 06:16:03;;;;;;;0.00;0.00;;;8.60;99.90;;;;;;5032215;28;19913;-72
2022/12/27 06:18:31;;;;;;;0.00;0.00;;;8.60;99.90;;;;;;5028053;28;20021;-73
2022/12/27 06:21:04;;;;;;;0.00;0.00;;;8.60;99.90;;;;;;5029675;28;20017;-72
2022/12/27 06:23:29;;;;;;;0.00;0.00;;;8.60;99.90;;;;;;5025060;28;20068;-72
2022/12/27 06:25:55;;;;;;;0.00;0.00;;;8.60;99.90;;;;;;5044463;28;20021;-72
2022/12/27 06:28:23;;;;;;;0.00;0.00;;;8.60;99.90;;;;;;5030653;28;20093;-72
2022/12/27 06:30:49;;;;;;;0.00;0.00;;;8.50;99.90;;;;;;5032458;28;20105;-72
2022/12/27 06:33:16;;;;;;;0.00;0.00;;;8.50;99.90;;;;;;5030696;28;20028;-72
2022/12/27 06:35:41;;;;;;;;;;;8.40;99.90;;;;;;5035130;28;20032;-73
2022/12/27 06:38:07;;;;;;;0.00;0.00;;;8.40;99.90;;;;;;5028835;28;20265;-72
2022/12/27 06:40:33;;;;;;;0.00;0.00;;;8.20;99.90;;;;;;5026957;28;20040;-73
2022/12/27 06:42:58;;;;;;;0.00;0.00;;;8.10;99.90;;;;;;5030582;28;20037;-72
2022/12/27 06:45:24;;;;;;;0.00;0.00;;;8.00;99.90;;;;;;5030829;28;20437;-72
2022/12/27 06:47:49;;;;;;;0.00;0.00;;;7.90;99.90;;;;;;5025171;28;20396;-72
2022/12/27 06:50:15;;;;;;;0.00;0.00;;;8.00;99.90;;;;;;5029609;28;20029;-72
2022/12/27 06:52:41;;;;;;;0.00;0.00;;;8.00;99.90;;;;;;5028718;28;20688;-72
2022/12/27 06:55:06;;;;;;;0.00;0.00;;;8.10;99.90;;;;;;5028840;28;20730;-72
2022/12/27 06:57:33;;;;;;;0.00;0.00;;;8.20;99.90;;;;;;5027316;28;20550;-73
2022/12/27 06:59:59;;;;;;;0.00;0.00;;;8.40;99.90;;;;;;5029236;28;20295;-72
2022/12/27 07:02:31;;;;;;;0.00;0.00;;;8.60;99.90;;;;;;5029457;28;20409;-73
2022/12/27 07:04:58;;;;;;;0.00;0.00;;;9.20;99.90;;;;;;5026381;28;20026;-73
2022/12/27 07:07:24;;;;;;;0.00;0.00;;;9.60;99.90;;;;;;5029265;28;20086;-73
2022/12/27 07:09:50;;;;;;;0.00;0.00;;;9.90;99.90;;;;;;5028042;28;20487;-72
2022/12/27 07:12:21;;;;;;;0.00;0.00;;;9.90;99.90;;;;;;5026724;28;20121;-73
2022/12/27 07:14:48;;;;;;;0.00;0.00;;;10.20;99.90;;;;;;5035249;28;20021;-73
2022/12/27 07:17:13;;;;;;;;;;;10.90;99.50;;;;;;5028512;28;20038;-73
2022/12/27 07:19:40;;;;;;;0.00;0.00;;;11.50;97.30;;;;;;5029026;28;20531;-73
2022/12/27 07:22:08;;;;;;;0.00;0.00;;;12.20;94.60;;;;;;5027975;28;20021;-73
2022/12/27 07:24:34;;;;;;;0.00;0.00;;;12.90;91.60;;;;;;5027728;28;20485;-73
2022/12/27 07:27:04;;;;;;;0.00;0.00;;;13.40;86.90;;;;;;5028899;28;20143;-73
2022/12/27 07:29:30;;;;;;;0.00;0.00;;;13.20;83.60;;;;;;5040461;28;20030;-73
2022/12/27 07:31:58;;;;;;;0.00;0.00;;;12.30;85.30;;;;;;5028070;28;20022;-74
2022/12/27 07:34:24;;;;;;;0.00;0.00;;;11.70;89.60;;;;;;5038449;28;20033;-73
2022/12/27 07:36:50;;;;;;;0.00;0.00;;;11.40;90.60;;;;;;5029016;28;20026;-73
2022/12/27 07:39:16;;;;;;;0.00;0.00;;;11.20;90.40;;;;;;5025833;28;20478;-73
2022/12/27 07:41:43;;;;;;;0.00;0.00;;;10.90;90.80;;;;;;5024959;28;20094;-73
2022/12/27 07:44:09;;;;;;;;;;;10.80;91.50;;;;;;5028601;28;20647;-73
2022/12/27 07:46:35;;;;;;;0.00;0.00;;;10.90;92.00;;;;;;5032360;28;19925;-73
2022/12/27 07:49:03;;;;;;;0.00;0.00;;;11.10;91.80;;;;;;5027261;28;20298;-73
2022/12/27 07:51:30;;;;;;;0.00;0.00;;;11.00;90.70;;;;;;5030645;28;20144;-73
2022/12/27 07:53:56;;;;;;;0.00;0.00;;;10.90;91.30;;;;;;5040531;28;20022;-72
2022/12/27 07:56:25;;;;;;;0.00;0.00;;;10.80;91.30;;;;;;5029002;28;20040;-73
2022/12/27 07:58:53;;;;;;;0.00;0.00;;;10.80;91.50;;;;;;5033542;28;20160;-72
2022/12/27 08:01:20;;;;;;;0.00;0.00;;;10.70;91.30;;;;;;5029890;28;20044;-72
2022/12/27 08:03:49;;;;;;;0.00;0.00;;;10.80;91.70;;;;;;5031255;28;20033;-73
2022/12/27 08:06:26;;;;;;;0.00;0.00;;;10.60;92.30;;;;;;5036563;28;20430;-73
2022/12/27 08:08:52;;;;;;;0.00;0.00;;;10.60;92.40;;;;;;5029566;28;20033;-72
2022/12/27 08:11:18;;;;;;;;;;;10.60;92.60;;;;;;5031829;28;20029;-72
2022/12/27 08:13:45;;;;;;;0.00;0.00;;;10.50;92.30;;;;;;5032630;28;19913;-72
2022/12/27 08:16:20;;;;;;;0.00;0.00;;;10.50;92.20;;;;;;5031691;28;20040;-73
2022/12/27 08:18:47;;;;;;;0.00;0.00;;;10.70;92.40;;;;;;5030274;28;20758;-73
2022/12/27 08:21:18;;;;;;;0.00;0.00;;;12.10;90.00;;;;;;5032440;28;20033;-73
2022/12/27 08:23:44;;;;;;;0.00;0.00;;;12.60;84.40;;;;;;5033840;28;20044;-73
2022/12/27 08:26:10;;;;;;;0.00;0.00;;;12.30;81.80;;;;;;5032884;28;20483;-73
2022/12/27 08:28:36;;;;;;;0.00;0.00;;;12.00;83.30;;;;;;5035744;28;20025;-73
2022/12/27 08:31:07;;;;;;;0.00;0.00;;;12.20;84.80;;;;;;5031745;28;20489;-72
2022/12/27 08:33:34;;;;;;;0.00;0.00;;;12.50;82.90;;;;;;5031137;28;20017;-72
2022/12/27 08:36:07;;;;;;;0.00;0.00;;;13.00;81.60;;;;;;5034030;28;20029;-72
2022/12/27 08:38:33;;;;;;;0.00;0.00;;;14.00;78.90;;;;;;5035391;28;20029;-72
2022/12/27 08:41:01;;;;;;;0.00;0.00;;;15.10;74.10;;;;;;5030611;28;20022;-73
2022/12/27 08:43:30;;;;;;;0.00;0.00;;;15.50;75.90;;;;;;5032710;28;20033;-74
2022/12/27 08:46:01;;;;;;;0.00;0.00;;;17.10;68.30;;;;;;5046055;28;20033;-73
2022/12/27 08:48:28;;;;;;;0.00;0.00;;;18.20;63.00;;;;;;5028275;28;20032;-74
2022/12/27 08:50:54;;;;;;;0.00;0.00;;;19.30;57.80;;;;;;5034144;28;20441;-74
2022/12/27 08:53:21;;;;;;;0.00;0.00;;;20.20;55.00;;;;;;5034962;28;20514;-73
2022/12/27 08:55:47;;;;;;;0.00;0.00;;;19.90;54.00;;;;;;5033978;28;20264;-73
2022/12/27 08:58:15;;;;;;;0.00;0.00;;;20.70;52.40;;;;;;5031955;28;21501;-73
2022/12/27 09:00:45;;;;;;;0.00;0.00;;;21.20;51.40;;;;;;5030976;28;20343;-73
2022/12/27 09:03:16;;;;;;;0.00;0.00;;;21.40;50.40;;;;;;5029387;28;20025;-73
2022/12/27 09:05:43;;;;;;;0.00;0.00;;;22.40;49.10;;;;;;5031774;28;20115;-74
2022/12/27 09:08:10;;;;;;;0.00;0.00;;;23.30;47.30;;;;;;5030927;28;20637;-73
2022/12/27 09:10:36;;;;;;;0.00;0.00;;;23.80;46.60;;;;;;5032594;28;20036;-73
2022/12/27 09:13:02;;;;;;;0.00;0.00;;;22.50;46.20;;;;;;5029276;28;20040;-73
2022/12/27 09:15:28;;;;;;;0.00;0.00;;;19.70;48.50;;;;;;5030964;28;20340;-73
2022/12/27 09:17:53;;;;;;;0.00;0.00;;;18.20;51.30;;;;;;5040004;28;20140;-73
2022/12/27 09:20:20;;;;;;;0.00;0.00;;;16.80;53.40;;;;;;5033062;28;20038;-73
2022/12/27 09:22:47;;;;;;;0.00;0.00;;;16.70;55.00;;;;;;5034307;28;20033;-73
2022/12/27 09:25:14;;;;;;;0.00;0.00;;;16.50;56.40;;;;;;5032701;28;20359;-72
2022/12/27 09:27:40;;;;;;;0.00;0.00;;;15.80;56.80;;;;;;5029838;28;20017;-73
2022/12/27 09:30:10;;;;;;;0.00;0.00;;;16.70;56.70;;;;;;5034475;28;20120;-72
2022/12/27 09:32:36;;;;;;;0.00;0.00;;;18.30;55.20;;;;;;5033035;28;20025;-72
2022/12/27 09:35:02;;;;;;;0.00;0.00;;;20.10;51.80;;;;;;5028123;28;20029;-73
2022/12/27 09:37:28;;;;;;;0.00;0.00;;;22.10;48.70;;;;;;5030904;28;20100;-73
2022/12/27 09:39:54;;;;;;;0.00;0.00;;;23.50;46.40;;;;;;5030497;28;20467;-73
2022/12/27 09:42:54;;;;;;;0.00;0.00;;;23.90;44.60;;;;;;5025502;28;20710;-74
2022/12/27 09:45:32;;;;;;;0.00;0.00;;;24.20;44.00;;;;;;5037266;28;20623;-74
2022/12/27 09:48:19;;;;;;;0.00;0.00;;;24.90;43.40;;;;;;5030468;28;20052;-73
2022/12/27 09:50:50;;;;;;;0.00;0.00;;;25.70;42.40;;;;;;5030608;28;20160;-73
2022/12/27 09:53:30;;;;;;;0.00;0.00;;;26.00;41.40;;;;;;5029907;28;20022;-73
2022/12/27 09:55:59;;;;;;;0.00;0.00;;;25.00;41.10;;;;;;5028621;28;20060;-73
2022/12/27 09:58:35;;;;;;;0.00;0.00;;;22.30;42.10;;;;;;5032611;28;20017;-73
2022/12/27 10:01:21;;;;;;;0.00;0.00;;;21.40;44.70;;;;;;5028023;28;20476;-73
2022/12/27 10:03:49;;;;;;;0.10;0.10;;;22.60;43.80;;;;;;5030102;28;20029;-73
2022/12/27 10:06:24;;;;;;;0.00;0.00;;;22.70;43.00;;;;;;5026936;28;20029;-73
2022/12/27 10:08:58;;;;;;;0.00;0.00;;;23.60;42.40;;;;;;5041130;28;20017;-74
2022/12/27 10:11:41;;;;;;;0.00;0.00;;;24.50;41.40;;;;;;5027234;28;20022;-73
2022/12/27 10:14:37;;;;;;;0.00;0.00;;;24.40;40.90;;;;;;5032126;28;20017;-73
2022/12/27 10:17:41;;;;;;;0.00;0.00;;;25.30;39.80;;;;;;5025673;28;20127;-73
2022/12/27 10:20:22;;;;;;;0.00;0.00;;;25.30;39.70;;;;;;5007149;28;20033;-73
2022/12/27 10:22:56;;;;;;;0.00;0.00;;;25.50;39.00;;;;;;5009389;28;20026;-73
2022/12/27 10:25:24;;;;;;;0.00;0.00;;;25.90;38.60;;;;;;5027493;28;20434;-74
2022/12/27 10:28:00;;;;;;;0.00;0.00;;;26.30;37.90;;;;;;5027910;28;20017;-73
2022/12/27 10:30:29;;;;;;;0.00;0.00;;;25.80;37.80;;;;;;5030590;28;20029;-73
2022/12/27 10:32:55;;;;;;;0.00;0.00;;;25.80;37.60;;;;;;5029307;28;20018;-73
2022/12/27 10:35:23;;;;;;;0.00;0.00;;;25.90;38.30;;;;;;5047356;28;20036;-74
2022/12/27 10:37:49;;;;;;;0.10;0.10;;;26.50;37.40;;;;;;5027318;28;20586;-73
2022/12/27 10:40:23;;;;;;;0.00;0.00;;;26.50;37.00;;;;;;5029869;28;20056;-73
2022/12/27 10:43:15;;;;;;;0.00;0.00;;;26.70;36.90;;;;;;5027745;28;20769;-72
2022/12/27 10:45:41;;;;;;;0.00;0.00;;;26.20;39.70;;;;;;5028008;28;20036;-72
2022/12/27 10:48:28;;;;;;;0.00;0.00;;;26.50;38.70;;;;;;5026732;28;20061;-74
2022/12/27 10:51:10;;;;;;;0.00;0.00;;;27.40;37.10;;;;;;5030249;28;20045;-76
2022/12/27 10:53:53;;;;;;;0.00;0.00;;;27.20;36.20;;;;;;5040049;28;20025;-74
2022/12/27 10:56:28;;;;;;;0.00;0.00;;;25.60;35.80;;;;;;5031122;28;20501;-74
2022/12/27 10:59:15;;;;;;;0.00;0.00;;;24.90;36.60;;;;;;5028055;28;20018;-74
2022/12/27 11:01:44;;;;;;;0.00;0.00;;;25.20;37.10;;;;;;5026553;28;20040;-75
2022/12/27 11:04:21;;;;;;;0.00;0.00;;;22.70;38.00;;;;;;5031253;28;20064;-76
2022/12/27 11:06:58;;;;;;;;;;;19.90;40.50;;;;;;5028401;28;20025;-74
2022/12/27 11:09:42;;;;;;;0.00;0.00;;;17.20;43.40;;;;;;5029846;28;19909;-74
2022/12/27 11:12:31;;;;;;;0.00;0.00;;;15.60;46.70;;;;;;5042226;28;20025;-73
2022/12/27 11:14:58;;;;;;;0.00;0.00;;;14.40;48.50;;;;;;5032108;28;20382;-73
2022/12/27 11:17:39;;;;;;;0.00;0.00;;;13.60;49.30;;;;;;5028920;28;20029;-73
2022/12/27 11:20:21;;;;;;;0.00;0.00;;;13.30;50.20;;;;;;5030474;28;20072;-73
2022/12/27 11:22:58;;;;;;;0.00;0.00;;;12.90;50.90;;;;;;5027732;28;20100;-73
2022/12/27 11:25:26;;;;;;;0.00;0.00;;;12.60;51.90;;;;;;5027156;28;20021;-72
2022/12/27 11:27:57;;;;;;;0.00;0.00;;;12.50;54.50;;;;;;5025606;28;20028;-71
2022/12/27 11:30:37;;;;;;;0.00;0.00;;;12.50;55.20;;;;;;5032099;28;20196;-73
2022/12/27 11:33:48;;;;;;;0.00;0.00;;;12.50;56.30;;;;;;5036720;28;20021;-73
2022/12/27 11:36:31;;;;;;;0.00;0.00;;;12.50;53.80;;;;;;5033287;28;20038;-73
2022/12/27 11:38:59;;;;;;;0.00;0.00;;;12.30;53.70;;;;;;5045794;28;20099;-73
2022/12/27 11:41:37;;;;;;;0.00;0.00;;;12.30;54.20;;;;;;5048774;28;20086;-73
2022/12/27 11:44:26;;;;;;;0.00;0.00;;;12.20;55.20;;;;;;5050457;28;20180;-73
2022/12/27 11:47:04;;;;;;;0.00;0.00;;;12.10;55.70;;;;;;5029550;28;20025;-72
2022/12/27 11:49:39;;;;;;;0.00;0.00;;;12.10;55.90;;;;;;5033118;28;20095;-72
2022/12/27 11:52:23;;;;;;;0.00;0.00;;;12.10;56.10;;;;;;5046000;28;20074;-72
2022/12/27 11:55:13;;;;;;;0.00;0.00;;;11.90;56.90;;;;;;5033443;28;20514;-72
2022/12/27 11:58:09;;;;;;;0.00;0.00;;;11.80;57.60;;;;;;5029212;28;20029;-72
2022/12/27 12:00:52;;;;;;;0.00;0.00;;;11.60;57.40;;;;;;5028526;28;20105;-72
2022/12/27 12:03:55;;;;;;;0.00;0.00;;;11.60;58.20;;;;;;5034903;28;20467;-72
2022/12/27 12:06:44;;;;;;;0.00;0.00;;;11.40;60.10;;;;;;5032649;28;20040;-73
2022/12/27 12:09:30;;;;;;;0.00;0.00;;;11.40;59.80;;;;;;5043006;28;20060;-73
2022/12/27 12:12:14;;;;;;;0.00;0.00;;;11.50;60.20;;;;;;5043746;28;20021;-73
2022/12/27 12:15:05;;;;;;;0.00;0.00;;;11.50;60.00;;;;;;5034821;28;20018;-72
2022/12/27 12:17:46;;;;;;;0.00;0.00;;;11.60;60.00;;;;;;5044838;28;20551;-72
2022/12/27 12:20:40;;;;;;;0.00;0.00;;;11.60;59.40;;;;;;5033371;28;20106;-72
2022/12/27 12:23:41;;;;;;;0.00;0.00;;;11.50;59.50;;;;;;5042471;28;20025;-73
2022/12/27 12:26:12;;;;;;;0.00;0.00;;;11.30;60.40;;;;;;4996169;28;20571;-72
2022/12/27 12:29:04;;;;;;;0.00;0.00;;;11.20;61.70;;;;;;5030306;28;20079;-72
2022/12/27 12:31:47;;;;;;;0.00;0.00;;;11.10;62.40;;;;;;5046977;28;20056;-72
2022/12/27 12:34:42;;;;;;;0.00;0.00;;;11.00;65.30;;;;;;5029653;28;20025;-72
2022/12/27 12:37:23;;;;;;;0.00;0.00;;;11.00;67.50;;;;;;5032524;28;20052;-73
2022/12/27 12:40:15;;;;;;;0.00;0.00;;;11.10;67.00;;;;;;5030021;28;20044;-73
2022/12/27 12:43:18;;;;;;;0.00;0.00;;;11.00;68.40;;;;;;5045416;28;20653;-72
2022/12/27 12:46:17;;;;;;;0.00;0.00;;;11.00;70.70;;;;;;5031761;28;20026;-73
2022/12/27 12:49:19;;;;;;;0.00;0.00;;;11.00;65.00;;;;;;5030409;28;20025;-73
2022/12/27 12:52:12;;;;;;;0.00;0.00;;;11.00;65.60;;;;;;5046359;28;20095;-73
2022/12/27 12:55:16;;;;;;;0.00;0.00;;;10.80;64.50;;;;;;5031483;28;20028;-73
2022/12/27 12:58:10;;;;;;;0.10;0.10;;;10.70;65.00;;;;;;5032115;28;20139;-73
2022/12/27 13:01:16;;;;;;;0.00;0.00;;;10.60;65.60;;;;;;5027915;28;20061;-72
2022/12/27 13:04:05;;;;;;;0.00;0.00;;;10.40;66.80;;;;;;5031345;28;20474;-73
2022/12/27 13:07:05;;;;;;;0.00;0.00;;;10.30;66.90;;;;;;5029827;28;20475;-72
2022/12/27 13:10:11;;;;;;;0.00;0.00;;;10.20;67.80;;;;;;5041006;28;20029;-73
2022/12/27 13:13:02;;;;;;;0.00;0.00;;;10.20;68.70;;;;;;5030694;28;20079;-73
2022/12/27 13:16:11;;;;;;;0.00;0.00;;;10.10;69.70;;;;;;5032389;28;20774;-73
2022/12/27 13:19:07;;;;;;;0.00;0.00;;;10.00;70.70;;;;;;5029919;28;20063;-73
2022/12/27 13:22:07;;;;;;;0.00;0.00;;;9.90;71.60;;;;;;5034700;28;20025;-73
2022/12/27 13:24:52;;;;;;;0.00;0.00;;;9.70;73.10;;;;;;5031822;28;20714;-72
2022/12/27 13:27:34;;;;;;;0.00;0.00;;;9.50;75.80;;;;;;5037928;28;20632;-72
2022/12/27 13:30:11;;;;;;;0.00;0.00;;;9.40;75.90;;;;;;5031665;28;20037;-73
2022/12/27 13:33:02;;;;;;;0.00;0.00;;;9.40;76.80;;;;;;5030336;28;20025;-72
2022/12/27 13:36:03;;;;;;;0.00;0.00;;;9.40;78.30;;;;;;5027933;28;20033;-72
2022/12/27 13:38:53;;;;;;;0.00;0.00;;;9.30;80.10;;;;;;5045216;28;20029;-73
2022/12/27 13:41:40;;;;;;;0.00;0.00;;;9.30;80.90;;;;;;5026646;28;20068;-72
2022/12/27 13:44:09;;;;;;;0.00;0.00;;;9.20;82.00;;;;;;5031858;28;20522;-72
2022/12/27 13:47:14;;;;;;;0.00;0.00;;;9.10;83.30;;;;;;5032070;28;20025;-72
2022/12/27 13:49:48;;;;;;;0.00;0.00;;;9.10;83.90;;;;;;5033377;28;20017;-72
2022/12/27 13:52:52;;;;;;;0.00;0.00;;;9.00;85.60;;;;;;5030596;28;20028;-72
2022/12/27 13:55:44;;;;;;;0.00;0.00;;;9.00;86.50;;;;;;5030096;28;20044;-72
2022/12/27 13:58:52;;;;;;;0.00;0.00;;;8.90;87.30;;;;;;5045969;28;20104;-72
2022/12/27 14:01:27;;;;;;;0.00;0.00;;;8.80;88.90;;;;;;5029044;28;20079;-72
2022/12/27 14:04:11;;;;;;;0.00;0.00;;;8.70;90.00;;;;;;5043747;28;20030;-72
2022/12/27 14:06:51;;;;;;;0.00;0.00;;;8.70;90.10;;;;;;5027119;28;20025;-73
2022/12/27 14:09:55;;;;;;;0.00;0.00;;;8.70;90.90;;;;;;5029195;28;20017;-72
2022/12/27 14:13:06;;;;;;;0.00;0.00;;;8.60;91.30;;;;;;5018945;28;20387;-73
2022/12/27 14:15:54;;;;;;;0.00;0.00;;;8.50;92.00;;;;;;5029177;28;20049;-73
2022/12/27 14:18:50;;;;;;;0.00;0.00;;;8.50;92.70;;;;;;5042109;28;20379;-73
2022/12/27 14:21:41;;;;;;;0.00;0.00;;;8.40;93.30;;;;;;5033648;28;20117;-73
2022/12/27 14:24:16;;;;;;;0.00;0.00;;;8.30;93.70;;;;;;5044300;28;20040;-72
2022/12/27 14:26:44;;;;;;;0.00;0.00;;;8.20;94.40;;;;;;5050808;28;20121;-73
2022/12/27 14:29:47;;;;;;;0.00;0.00;;;8.10;94.90;;;;;;5032136;28;20108;-73
2022/12/27 14:32:31;;;;;;;0.00;0.00;;;8.00;95.90;;;;;;5054192;28;20021;-72
2022/12/27 14:35:26;;;;;;;0.00;0.00;;;7.80;96.50;;;;;;5026725;28;20029;-72
2022/12/27 14:38:11;;;;;;;0.00;0.00;;;7.80;97.40;;;;;;5041530;28;20051;-72
2022/12/27 14:41:13;;;;;;;0.00;0.00;;;7.70;98.20;;;;;;5026720;28;20140;-72
2022/12/27 14:44:14;;;;;;;0.00;0.00;;;7.70;98.70;;;;;;5048379;28;20022;-72
2022/12/27 14:46:53;;;;;;;0.00;0.00;;;7.50;99.00;;;;;;5031031;28;20021;-72
2022/12/27 14:49:37;;;;;;;0.00;0.00;;;7.40;99.60;;;;;;5026091;28;20339;-72
2022/12/27 14:52:12;;;;;;;0.00;0.00;;;7.30;99.90;;;;;;5029332;28;20036;-72
2022/12/27 14:54:46;;;;;;;0.00;0.00;;;7.30;99.90;;;;;;5045135;28;21092;-72
2022/12/27 14:57:36;;;;;;;0.60;0.35;;;7.20;99.90;;;;;;5040717;28;20040;-72
2022/12/27 15:00:16;;;;;;;0.00;0.00;;;7.20;99.90;;;;;;5029302;28;20032;-73
2022/12/27 15:02:59;;;;;;;0.00;0.00;;;7.10;99.90;;;;;;5028693;28;20033;-72
2022/12/27 15:06:02;;;;;;;0.00;0.00;;;7.00;99.90;;;;;;5043469;28;20025;-72
2022/12/27 15:09:00;;;;;;;0.00;0.00;;;6.90;99.90;;;;;;5031792;28;20478;-72